Van Nuys, CA (91409)

2:55 AM PDT on April 26, 2015 (GMT -0700)
Hesby Oaks | | Change Station
CLOSE
Current Station
Personal Weather Station
Location: Encino, CA
Elevation: 705 ft
Nearby Weather Stations
Active Advisory: Wind Advisory Active Notice: Public Information Statement

Elev 705 ft 34.16 °N, 118.48 °W | Updated 3 seconds ago

Clear
Clear
57.6 °F
Feels Like 57.6 °F
N
4.9
Wind Variable Wind from NNE
Gusts 7.0 mph

Today
High -- | Low -- °F
--% Chance of Precip.
Yesterday
High -- | Low -- °F
Precip. -- in
6:09 AM 7:34 PM
First Quarter, 54% visible
Pressure 29.90 in
Visibility 10.0 miles
Clouds Clear
Dew Point 42 °F
Humidity 56%
Rainfall 0.00 in
Snow Depth Not available.
UV 0.0 out of 12
Pollen 6.90 out of 12
Air Quality Not available.
Flu Activity Sporadic
METAR KVNY 260951Z AUTO 33011G21KT 290V360 10SM CLR 17/03 A2991 RMK AO2 PK WND 35028/0935 SLP123 T01720033

More Conditions Fewer Conditions

Pressure 29.90 in
Visibility 10.0 miles
Clouds Clear
Dew Point 42 °F
Humidity 56%
Rainfall 0.00 in
Snow Depth Not available.
UV 0.0 out of 12
Pollen 6.90 out of 12
Air Quality Not available.
Flu Activity Sporadic
METAR KVNY 260951Z AUTO 33011G21KT 290V360 10SM CLR 17/03 A2991 RMK AO2 PK WND 35028/0935 SLP123 T01720033

More Conditions Fewer Conditions

The full scope of the disaster following a powerful 7.8-magnitude earthquake in Nepal may not come into view for days, but global charities are already sending emergency aid. Click to see how you can help.

10-Day Weather Forecast

Almanac

Astronomy

Apr. 26, 2015 Rise Set
Actual Time
Civil Twilight
Nautical Twilight
Astronomical Twilight
Moon
Length of Visible Light
Length of Day
Tomorrow will be .
, % of the Moon is Illuminated

Today's Extremes

State Highs State Lows

Community

WunderPhotos

Upload Photos

1,816,952 photos uploaded!

WunderBlogs® & News

Nearby

Air Quality

  Air Quality AQ Index Pollutant
Not available.

Snow Depth

Station Depth Elevation

Earthquake Activity

City Distance Mag. Time & Date
Minimum magnitude displayed is 2.5.

Coastal Water Temperatures

Place Temperature

Stations

Nearby Weather Stations

Station Location Temp. Windchill Dew Point Humidity Wind Precip. Elev Updated Type
                   
Wind Advisory
Statement as of 9:12 PM PDT on April 25, 2015

... Wind Advisory remains in effect until 10 am PDT Sunday...

* winds and timing... areas of north winds increasing overnight
to 15 to 25 mph with gusts to 40 mph. Isolated gusts to 50 mph
across higher terrain.

* Impacts... gusty winds will make driving difficult... especially
for drivers of high profile vehicles. Major roadways that
could be affected include interstates 5 and 405... as well as
Highway 118.

Precautionary/preparedness actions...

When driving... use extra caution. Be prepared for sudden gusty
cross winds.